Baldwin, New York
Current Conditions -  °F | °C
As of 8:51 PM on Friday 24 Oct 2014 (Local Time) from KJFK Reporting Station
Broken Clouds Broken Clouds  
Wind Chill: 54°   Ceiling: 25000
Heat Index: 54°   Visibility: 10mi
Dew Point: 46°   Wind: 5mph
Humidity: 75%   Direction: 170°S
Pressure: 29.83"   Gusts: NA
Location:  40.66°N, 73.61°W
Report Text: KJFK 250051Z 17004KT 10SM FEW049 SCT120 BKN250 12/08 A2983 RMK AO2 SLP101 T01220078
Loading
Personal Weather Stations






























Interactive Weather Map New forecast layout! Learn more

10-Day Weather Forecast

Advertisements
Track Severe Weather on mobile